createdAt,value
2022-11-28T00:01:30.659Z,38.70
2022-11-28T00:03:58.939Z,40.03
2022-11-28T00:06:27.915Z,40.23
2022-11-28T00:08:56.753Z,38.57
2022-11-28T00:11:24.720Z,41.90
2022-11-28T00:13:53.771Z,41.70
2022-11-28T00:16:24.076Z,44.70
2022-11-28T00:18:53.519Z,43.30
2022-11-28T00:21:21.635Z,45.63
2022-11-28T00:23:50.382Z,47.67
2022-11-28T00:26:20.405Z,46.93
2022-11-28T00:28:48.826Z,45.23
2022-11-28T00:31:18.882Z,45.70
2022-11-28T00:33:48.703Z,43.37
2022-11-28T00:36:16.863Z,43.63
2022-11-28T00:38:45.067Z,44.20
2022-11-28T00:41:14.956Z,42.03
2022-11-28T00:43:43.887Z,39.97
2022-11-28T00:46:12.995Z,39.50
2022-11-28T00:48:41.221Z,39.07
2022-11-28T00:51:14.225Z,38.73
2022-11-28T00:53:43.373Z,43.40
2022-11-28T00:56:13.651Z,42.17
2022-11-28T00:58:42.535Z,41.93
2022-11-28T01:01:12.743Z,40.10
2022-11-28T01:03:40.974Z,40.10
2022-11-28T01:06:11.907Z,39.97
2022-11-28T01:08:39.984Z,39.77
2022-11-28T01:11:13.095Z,38.30
2022-11-28T01:13:41.669Z,36.60
2022-11-28T01:16:10.670Z,34.40
2022-11-28T01:18:39.391Z,32.17
2022-11-28T01:21:08.161Z,30.40
2022-11-28T01:23:37.747Z,29.13
2022-11-28T01:26:07.282Z,29.10
2022-11-28T01:28:35.360Z,30.20
2022-11-28T01:31:07.043Z,27.37
2022-11-28T01:33:35.532Z,27.07
2022-11-28T01:36:04.596Z,27.03
2022-11-28T01:38:33.059Z,26.30
2022-11-28T01:41:02.466Z,26.20
2022-11-28T01:43:30.620Z,25.40
2022-11-28T01:45:58.763Z,26.50
2022-11-28T01:48:29.244Z,25.70
2022-11-28T01:51:00.323Z,24.73
2022-11-28T01:53:32.049Z,24.63
2022-11-28T01:56:07.496Z,24.67
2022-11-28T01:58:37.469Z,25.13
2022-11-28T02:01:06.299Z,26.30
2022-11-28T02:03:40.495Z,25.87
2022-11-28T02:06:09.241Z,26.60
2022-11-28T02:08:37.905Z,27.40
2022-11-28T02:11:36.449Z,26.33
2022-11-28T02:14:13.776Z,26.40
2022-11-28T02:16:53.301Z,25.73
2022-11-28T02:19:58.714Z,26.00
2022-11-28T02:22:34.110Z,25.47
2022-11-28T02:25:26.978Z,24.47
2022-11-28T02:28:25.966Z,24.83
2022-11-28T02:31:03.577Z,25.60
2022-11-28T02:33:35.158Z,26.27
2022-11-28T02:36:11.132Z,25.93
2022-11-28T02:38:50.772Z,24.40
2022-11-28T02:41:24.511Z,24.13
2022-11-28T02:44:02.695Z,24.63
2022-11-28T02:46:39.216Z,25.53
2022-11-28T02:49:12.495Z,24.90
2022-11-28T02:51:43.526Z,24.93
2022-11-28T02:54:14.367Z,25.63
2022-11-28T02:56:49.195Z,24.27
2022-11-28T02:59:43.957Z,25.23
2022-11-28T03:02:16.426Z,25.73
2022-11-28T03:04:53.549Z,23.93
2022-11-28T03:07:33.999Z,25.77
2022-11-28T03:10:16.806Z,25.33
2022-11-28T03:12:57.067Z,24.83
2022-11-28T03:15:32.461Z,25.00
2022-11-28T03:18:09.937Z,23.93
2022-11-28T03:20:47.137Z,23.07
2022-11-28T03:23:18.004Z,24.20
2022-11-28T03:25:56.655Z,23.90
2022-11-28T03:28:28.730Z,23.83
2022-11-28T03:31:01.632Z,24.40
2022-11-28T03:33:33.300Z,23.90
2022-11-28T03:36:06.786Z,24.90
2022-11-28T03:38:39.997Z,24.20
2022-11-28T03:41:11.453Z,25.40
2022-11-28T03:43:45.431Z,25.57
2022-11-28T03:46:17.808Z,25.23
2022-11-28T03:48:49.927Z,24.70
2022-11-28T03:51:22.655Z,26.40
2022-11-28T03:53:54.907Z,27.67
2022-11-28T03:56:27.663Z,27.60
2022-11-28T03:59:00.833Z,26.97
2022-11-28T04:01:33.482Z,27.80
2022-11-28T04:04:13.109Z,28.13
2022-11-28T04:06:53.475Z,30.43
2022-11-28T04:09:35.110Z,30.17
2022-11-28T04:12:11.627Z,29.90
2022-11-28T04:14:45.298Z,29.73
2022-11-28T04:17:18.800Z,29.33
2022-11-28T04:19:51.884Z,27.70
2022-11-28T04:22:25.391Z,25.90
2022-11-28T04:24:56.177Z,27.23
2022-11-28T04:27:28.740Z,25.50
2022-11-28T04:30:00.545Z,28.47
2022-11-28T04:32:31.412Z,28.70
2022-11-28T04:35:06.374Z,28.10
2022-11-28T04:37:38.096Z,28.87
2022-11-28T04:40:10.032Z,27.20
2022-11-28T04:42:41.105Z,25.87
2022-11-28T04:45:15.466Z,25.97
2022-11-28T04:47:44.876Z,25.53
2022-11-28T04:50:13.568Z,27.07
2022-11-28T04:52:51.541Z,25.53
2022-11-28T04:55:30.015Z,26.70
2022-11-28T04:58:04.058Z,25.63
2022-11-28T05:00:35.668Z,27.27
2022-11-28T05:03:04.875Z,27.53
2022-11-28T05:05:42.625Z,26.77
2022-11-28T05:08:12.067Z,26.10
2022-11-28T05:10:40.142Z,27.27
2022-11-28T05:13:08.458Z,27.50
2022-11-28T05:15:36.523Z,26.63
2022-11-28T05:18:04.763Z,24.13
2022-11-28T05:20:33.082Z,23.70
2022-11-28T05:23:01.107Z,22.50
2022-11-28T05:25:30.510Z,23.37
2022-11-28T05:27:58.487Z,22.57
2022-11-28T05:30:26.568Z,21.53
2022-11-28T05:32:54.531Z,22.13
2022-11-28T05:35:23.431Z,22.57
2022-11-28T05:37:51.381Z,21.67
2022-11-28T05:40:19.396Z,23.07
2022-11-28T05:42:48.724Z,23.03
2022-11-28T05:45:16.749Z,22.70
2022-11-28T05:47:44.759Z,22.73
2022-11-28T05:50:13.182Z,21.63
2022-11-28T05:52:41.166Z,24.00
2022-11-28T05:55:10.155Z,22.40
2022-11-28T05:57:38.104Z,23.50
2022-11-28T06:00:09.410Z,23.23
2022-11-28T06:02:37.409Z,23.83
2022-11-28T06:05:21.332Z,24.87
2022-11-28T06:07:54.092Z,25.63
2022-11-28T06:10:22.613Z,24.07
2022-11-28T06:12:51.087Z,24.83
2022-11-28T06:15:20.412Z,24.97
2022-11-28T06:17:48.397Z,24.93
2022-11-28T06:20:16.527Z,24.43
2022-11-28T06:22:46.959Z,24.63
2022-11-28T06:25:15.177Z,24.30
2022-11-28T06:27:43.143Z,23.30
2022-11-28T06:30:11.536Z,23.60
2022-11-28T06:32:40.955Z,23.90
2022-11-28T06:35:09.495Z,24.23
2022-11-28T06:37:37.536Z,25.17
2022-11-28T06:40:06.730Z,24.50
2022-11-28T06:42:36.805Z,25.10
2022-11-28T06:45:05.663Z,24.50
2022-11-28T06:47:33.702Z,25.10
2022-11-28T06:50:03.029Z,24.73
2022-11-28T06:52:30.996Z,24.53
2022-11-28T06:54:59.018Z,23.23
2022-11-28T06:57:27.427Z,24.53
2022-11-28T06:59:55.446Z,24.30
2022-11-28T07:02:25.101Z,24.13
2022-11-28T07:04:53.280Z,24.40
2022-11-28T07:07:22.775Z,24.50
2022-11-28T07:09:52.300Z,24.57
2022-11-28T07:12:20.420Z,25.93
2022-11-28T07:14:48.424Z,25.87
2022-11-28T07:17:16.543Z,26.03
2022-11-28T07:19:47.192Z,24.53
2022-11-28T07:22:17.265Z,25.53
2022-11-28T07:24:48.414Z,24.37
2022-11-28T07:27:16.373Z,24.40
2022-11-28T07:29:44.590Z,24.83
2022-11-28T07:32:12.800Z,24.73
2022-11-28T07:34:41.261Z,25.13
2022-11-28T07:37:09.763Z,24.60
2022-11-28T07:39:38.000Z,26.50
2022-11-28T07:42:08.065Z,25.13
2022-11-28T07:44:36.081Z,26.90
2022-11-28T07:47:04.321Z,26.43
2022-11-28T07:49:32.664Z,25.57
2022-11-28T07:52:00.650Z,26.17
2022-11-28T07:54:28.626Z,26.80
2022-11-28T07:57:11.889Z,28.17
2022-11-28T07:59:42.879Z,27.10
2022-11-28T08:02:11.442Z,27.27
2022-11-28T08:04:43.767Z,27.93
2022-11-28T08:07:16.170Z,27.57
2022-11-28T08:09:44.710Z,27.20
2022-11-28T08:12:12.898Z,27.83
2022-11-28T08:14:42.636Z,29.30
2022-11-28T08:17:10.778Z,28.20
2022-11-28T08:19:38.777Z,26.10
2022-11-28T08:22:06.732Z,27.40
2022-11-28T08:24:34.714Z,27.97
2022-11-28T08:27:02.736Z,26.33
2022-11-28T08:29:30.894Z,26.63
2022-11-28T08:32:00.508Z,26.57
2022-11-28T08:34:28.567Z,26.73
2022-11-28T08:36:56.629Z,25.87
2022-11-28T08:39:25.514Z,26.93
2022-11-28T08:41:54.476Z,25.37
2022-11-28T08:44:22.789Z,27.40
2022-11-28T08:46:50.898Z,26.40
2022-11-28T08:49:20.675Z,27.00
2022-11-28T08:51:48.652Z,27.97
2022-11-28T08:54:16.715Z,28.17
2022-11-28T08:56:45.313Z,27.00
2022-11-28T08:59:13.367Z,27.13
2022-11-28T09:01:41.409Z,27.77
2022-11-28T09:04:09.471Z,27.60
2022-11-28T09:06:40.024Z,28.17
2022-11-28T09:09:09.133Z,29.40
2022-11-28T09:11:37.217Z,28.30
2022-11-28T09:14:05.298Z,31.30
2022-11-28T09:16:33.400Z,28.37
2022-11-28T09:19:01.495Z,28.77
2022-11-28T09:21:29.503Z,28.13
2022-11-28T09:23:58.895Z,27.50
2022-11-28T09:26:27.168Z,27.67
2022-11-28T09:28:55.713Z,28.53
2022-11-28T09:31:24.211Z,31.03
2022-11-28T09:33:52.357Z,29.27
2022-11-28T09:36:22.291Z,30.17
2022-11-28T09:38:50.549Z,28.67
2022-11-28T09:41:42.306Z,28.10
2022-11-28T09:44:17.895Z,27.93
2022-11-28T09:46:47.525Z,29.43
2022-11-28T09:49:25.347Z,27.93
2022-11-28T09:51:57.207Z,27.00
2022-11-28T09:54:34.090Z,26.50
2022-11-28T09:57:09.934Z,27.23
2022-11-28T09:59:37.921Z,26.90
2022-11-28T10:02:20.142Z,26.37
2022-11-28T10:04:56.906Z,26.37
2022-11-28T10:07:30.831Z,26.37
2022-11-28T10:10:10.135Z,26.53
2022-11-28T10:12:49.744Z,28.37
2022-11-28T10:15:42.873Z,26.80
2022-11-28T10:18:37.466Z,26.33
2022-11-28T10:21:11.580Z,25.50
2022-11-28T10:23:44.471Z,25.20
2022-11-28T10:26:19.308Z,24.23
2022-11-28T10:28:53.651Z,24.37
2022-11-28T10:31:32.149Z,24.93
2022-11-28T10:34:07.373Z,23.70
2022-11-28T10:36:48.247Z,25.03
2022-11-28T10:39:16.311Z,25.10
2022-11-28T10:42:11.388Z,21.90
2022-11-28T10:44:56.635Z,22.60
2022-11-28T10:47:44.482Z,23.07
2022-11-28T10:50:20.978Z,22.17
2022-11-28T10:52:58.067Z,21.27
2022-11-28T10:55:36.187Z,22.20
2022-11-28T10:58:11.662Z,22.63
2022-11-28T11:00:42.884Z,23.73
2022-11-28T11:03:14.408Z,23.07
2022-11-28T11:05:42.559Z,23.87
2022-11-28T11:08:20.016Z,23.63
2022-11-28T11:10:51.523Z,22.13
2022-11-28T11:13:23.544Z,20.80
2022-11-28T11:15:58.934Z,21.87
2022-11-28T11:18:29.072Z,19.97
2022-11-28T11:21:16.125Z,20.20
2022-11-28T11:23:44.465Z,20.57
2022-11-28T11:26:23.773Z,18.70
2022-11-28T11:28:52.833Z,19.07
2022-11-28T11:31:26.019Z,19.97
2022-11-28T11:34:03.415Z,19.77
2022-11-28T11:36:33.478Z,18.60
2022-11-28T11:39:16.794Z,21.50
2022-11-28T11:41:46.983Z,21.37
2022-11-28T11:44:34.397Z,20.40
2022-11-28T11:47:05.851Z,19.83
2022-11-28T11:49:36.264Z,21.27
2022-11-28T11:52:06.583Z,20.60
2022-11-28T11:54:34.858Z,20.40
2022-11-28T11:57:31.223Z,19.13
2022-11-28T11:59:55.688Z,19.70
2022-11-28T12:02:32.016Z,16.87
2022-11-28T12:05:05.589Z,19.47
2022-11-28T12:07:40.284Z,19.97
2022-11-28T12:10:13.016Z,18.90
2022-11-28T12:12:42.141Z,19.23
2022-11-28T12:15:18.889Z,19.77
2022-11-28T12:18:02.324Z,20.50
2022-11-28T12:20:42.809Z,18.87
2022-11-28T12:23:25.475Z,19.20
2022-11-28T12:26:00.051Z,18.53
2022-11-28T12:28:37.541Z,18.43
2022-11-28T12:31:13.666Z,18.70
2022-11-28T12:33:54.317Z,17.70
2022-11-28T12:36:30.129Z,19.07
2022-11-28T12:39:14.159Z,18.73
2022-11-28T12:42:15.935Z,18.83
2022-11-28T12:44:58.446Z,19.03
2022-11-28T12:47:38.401Z,19.43
2022-11-28T12:50:22.648Z,18.87
2022-11-28T12:52:59.834Z,18.77
2022-11-28T12:55:35.984Z,18.93
2022-11-28T12:58:11.979Z,18.67
2022-11-28T13:00:49.464Z,17.87
2022-11-28T13:03:29.757Z,17.10
2022-11-28T13:06:08.751Z,16.67
2022-11-28T13:08:49.365Z,18.17
2022-11-28T13:11:33.632Z,16.37
2022-11-28T13:14:06.318Z,16.67
2022-11-28T13:16:42.936Z,15.63
2022-11-28T13:19:22.435Z,15.07
2022-11-28T13:21:57.944Z,15.57
2022-11-28T13:24:32.051Z,14.87
2022-11-28T13:27:09.341Z,14.77
2022-11-28T13:29:43.385Z,15.67
2022-11-28T13:32:20.226Z,14.63
2022-11-28T13:34:49.517Z,15.40
2022-11-28T13:40:21.307Z,15.90
2022-11-28T13:43:06.979Z,15.60
2022-11-28T13:49:20.461Z,15.87
2022-11-28T13:51:49.070Z,17.57
2022-11-28T13:54:46.335Z,16.57
2022-11-28T13:57:37.032Z,16.23
2022-11-28T14:00:21.508Z,16.70
2022-11-28T14:02:52.995Z,16.23
2022-11-28T14:05:34.076Z,17.40
2022-11-28T14:08:04.008Z,18.70
2022-11-28T14:11:10.527Z,20.40
2022-11-28T14:13:56.979Z,20.70
2022-11-28T14:16:38.804Z,20.10
2022-11-28T14:19:20.442Z,19.90
2022-11-28T14:21:58.624Z,20.63
2022-11-28T14:24:41.874Z,19.17
2022-11-28T14:27:21.966Z,19.20
2022-11-28T14:29:53.052Z,19.77
2022-11-28T14:32:35.161Z,22.63
2022-11-28T14:35:03.930Z,21.67
2022-11-28T14:37:57.573Z,18.03
2022-11-28T14:41:05.722Z,16.27
2022-11-28T14:43:37.333Z,14.00
2022-11-28T14:46:32.670Z,13.97
2022-11-28T14:49:22.965Z,13.60
2022-11-28T14:55:18.908Z,13.33
2022-11-28T14:58:02.919Z,13.10
2022-11-28T15:00:39.341Z,13.10
2022-11-28T15:03:22.554Z,14.07
2022-11-28T15:05:52.871Z,13.20
2022-11-28T15:08:37.856Z,14.30
2022-11-28T15:11:25.706Z,13.23
2022-11-28T15:14:05.929Z,13.70
2022-11-28T15:16:36.788Z,14.63
2022-11-28T15:19:09.335Z,14.03
2022-11-28T15:21:44.933Z,15.70
2022-11-28T15:24:22.052Z,16.00
2022-11-28T15:26:55.812Z,19.50
2022-11-28T15:29:27.240Z,17.17
2022-11-28T15:31:58.405Z,16.43
2022-11-28T15:34:29.058Z,16.67
2022-11-28T15:36:58.826Z,16.70
2022-11-28T15:39:31.554Z,18.13
2022-11-28T15:42:02.147Z,17.40
2022-11-28T15:44:31.041Z,17.83
2022-11-28T15:47:00.608Z,18.27
2022-11-28T15:49:30.708Z,18.00
2022-11-28T15:52:02.968Z,18.43
2022-11-28T15:54:39.126Z,19.10
2022-11-28T15:57:07.980Z,19.43
2022-11-28T15:59:36.867Z,19.33
2022-11-28T16:02:16.335Z,19.27
2022-11-28T16:04:45.653Z,20.17
2022-11-28T16:07:16.763Z,20.07
2022-11-28T16:09:55.885Z,20.23
2022-11-28T16:12:24.246Z,21.53
2022-11-28T16:14:55.340Z,21.53
2022-11-28T16:17:28.565Z,20.10
2022-11-28T16:19:57.870Z,20.70
2022-11-28T16:22:33.335Z,19.00
2022-11-28T16:25:14.397Z,19.90
2022-11-28T16:27:45.535Z,21.80
2022-11-28T16:30:29.878Z,20.70
2022-11-28T16:32:59.476Z,22.60
2022-11-28T16:35:29.622Z,23.60
2022-11-28T16:38:08.310Z,29.97
2022-11-28T16:40:36.336Z,35.53
2022-11-28T16:43:06.155Z,45.43
2022-11-28T16:45:35.157Z,42.00
2022-11-28T16:48:17.643Z,42.60
2022-11-28T16:51:24.449Z,44.33
2022-11-28T16:53:55.099Z,49.00
2022-11-28T16:56:26.816Z,51.77
2022-11-28T16:58:56.204Z,50.67
2022-11-28T17:01:25.443Z,54.40
2022-11-28T17:03:55.542Z,46.03
2022-11-28T17:06:26.846Z,49.20
2022-11-28T17:08:55.067Z,46.10
2022-11-28T17:11:27.448Z,48.17
2022-11-28T17:13:57.692Z,49.70
2022-11-28T17:16:29.544Z,48.70
2022-11-28T17:18:58.838Z,48.33
2022-11-28T17:21:33.038Z,54.70
2022-11-28T17:24:01.749Z,52.20
2022-11-28T17:26:29.912Z,51.17
2022-11-28T17:28:58.787Z,48.67
2022-11-28T17:31:26.829Z,51.63
2022-11-28T17:33:54.862Z,51.47
2022-11-28T17:36:24.231Z,48.60
2022-11-28T17:38:52.156Z,45.17
2022-11-28T17:41:20.116Z,42.70
2022-11-28T17:43:48.060Z,42.63
2022-11-28T17:46:16.317Z,45.57
2022-11-28T17:48:44.278Z,48.43
2022-11-28T17:51:12.368Z,49.47
2022-11-28T17:53:41.742Z,51.57
2022-11-28T17:56:11.462Z,48.87
2022-11-28T17:58:39.597Z,50.67
2022-11-28T18:01:11.010Z,55.93
2022-11-28T18:03:39.974Z,55.30
2022-11-28T18:06:15.207Z,57.83
2022-11-28T18:08:44.622Z,61.37
2022-11-28T18:11:14.209Z,53.97
2022-11-28T18:13:43.049Z,52.03
2022-11-28T18:16:11.613Z,53.70
2022-11-28T18:18:40.337Z,54.53
2022-11-28T18:21:09.682Z,52.93
2022-11-28T18:23:39.660Z,55.60
2022-11-28T18:26:10.792Z,58.60
2022-11-28T18:28:39.116Z,57.60
2022-11-28T18:31:11.644Z,59.27
2022-11-28T18:33:40.001Z,58.47
2022-11-28T18:36:12.455Z,56.37
2022-11-28T18:38:40.594Z,46.43
2022-11-28T18:41:10.818Z,39.97
2022-11-28T18:43:39.477Z,40.83
2022-11-28T18:46:09.079Z,44.60
2022-11-28T18:48:39.023Z,39.50
2022-11-28T18:51:12.250Z,41.03
2022-11-28T18:53:40.326Z,38.57
2022-11-28T18:56:10.415Z,38.00
2022-11-28T18:58:40.072Z,35.83
2022-11-28T19:01:12.454Z,32.17
2022-11-28T19:03:41.264Z,29.73
2022-11-28T19:06:11.408Z,35.00
2022-11-28T19:08:40.635Z,38.10
2022-11-28T19:11:14.265Z,44.87
2022-11-28T19:13:42.528Z,48.00
2022-11-28T19:16:12.646Z,47.33
2022-11-28T19:18:41.352Z,44.80
2022-11-28T19:21:10.457Z,41.83
2022-11-28T19:23:39.075Z,39.47
2022-11-28T19:26:10.382Z,36.70
2022-11-28T19:28:39.475Z,37.03
2022-11-28T19:31:08.093Z,37.60
2022-11-28T19:33:36.313Z,39.07
2022-11-28T19:36:04.647Z,38.20
2022-11-28T19:38:33.884Z,39.57
2022-11-28T19:41:06.869Z,49.33
2022-11-28T19:43:36.303Z,50.87
2022-11-28T19:46:04.562Z,51.93
2022-11-28T19:48:34.602Z,50.23
2022-11-28T19:51:03.484Z,48.30
2022-11-28T19:53:32.561Z,52.00
2022-11-28T19:56:03.849Z,49.73
2022-11-28T19:58:32.727Z,50.63
2022-11-28T20:01:07.204Z,51.17
2022-11-28T20:03:36.425Z,47.90
2022-11-28T20:06:09.930Z,52.87
2022-11-28T20:08:38.854Z,51.37
2022-11-28T20:11:11.940Z,49.47
2022-11-28T20:13:40.295Z,42.93
2022-11-28T20:16:11.224Z,43.47
2022-11-28T20:18:40.223Z,41.93
2022-11-28T20:21:09.542Z,40.97
2022-11-28T20:23:41.123Z,42.20
2022-11-28T20:26:09.763Z,39.03
2022-11-28T20:28:39.439Z,41.53
2022-11-28T20:31:16.885Z,45.00
2022-11-28T20:33:44.900Z,43.33
2022-11-28T20:36:14.585Z,41.43
2022-11-28T20:38:42.570Z,41.43
2022-11-28T20:41:12.266Z,41.80
2022-11-28T20:43:41.394Z,41.77
2022-11-28T20:46:13.715Z,40.73
2022-11-28T20:48:42.445Z,36.70
2022-11-28T20:51:10.820Z,37.70
2022-11-28T20:53:41.206Z,36.30
2022-11-28T20:56:12.227Z,36.97
2022-11-28T20:58:40.318Z,37.20
2022-11-28T21:01:08.598Z,35.17
2022-11-28T21:03:37.977Z,37.07
2022-11-28T21:06:06.105Z,34.53
2022-11-28T21:08:34.060Z,32.33
2022-11-28T21:11:06.322Z,29.17
2022-11-28T21:13:34.574Z,28.60
2022-11-28T21:16:07.218Z,27.87
2022-11-28T21:18:37.599Z,26.63
2022-11-28T21:21:09.164Z,27.60
2022-11-28T21:23:38.036Z,27.20
2022-11-28T21:26:07.593Z,27.20
2022-11-28T21:28:36.732Z,26.37
2022-11-28T21:31:07.328Z,26.97
2022-11-28T21:33:35.534Z,27.00
2022-11-28T21:36:07.150Z,33.10
2022-11-28T21:38:36.254Z,33.23
2022-11-28T21:41:04.233Z,37.23
2022-11-28T21:43:32.455Z,37.10
2022-11-28T21:46:03.449Z,36.50
2022-11-28T21:48:32.690Z,36.30
2022-11-28T21:51:01.096Z,38.97
2022-11-28T21:53:32.350Z,36.77
2022-11-28T21:56:02.409Z,40.83
2022-11-28T21:58:30.750Z,35.13
2022-11-28T22:00:59.328Z,32.77
2022-11-28T22:03:27.966Z,29.10
2022-11-28T22:06:01.067Z,26.97
2022-11-28T22:08:30.723Z,28.43
2022-11-28T22:11:01.070Z,26.20
2022-11-28T22:13:29.336Z,28.83
2022-11-28T22:15:57.783Z,29.57
2022-11-28T22:18:25.914Z,29.13
2022-11-28T22:21:01.530Z,30.87
2022-11-28T22:23:31.167Z,32.07
2022-11-28T22:25:59.144Z,31.37
2022-11-28T22:28:27.262Z,34.03
2022-11-28T22:30:55.277Z,35.83
2022-11-28T22:33:23.293Z,33.00
2022-11-28T22:35:51.295Z,33.03
2022-11-28T22:38:19.315Z,39.00
2022-11-28T22:40:48.653Z,35.67
2022-11-28T22:43:16.599Z,35.70
2022-11-28T22:45:44.655Z,38.60
2022-11-28T22:48:12.675Z,37.33
2022-11-28T22:50:41.145Z,34.23
2022-11-28T22:53:09.092Z,32.53
2022-11-28T22:55:37.128Z,34.13
2022-11-28T22:58:06.492Z,34.00
2022-11-28T23:00:34.574Z,34.77
2022-11-28T23:03:02.674Z,35.53
2022-11-28T23:05:30.763Z,34.23
2022-11-28T23:07:58.845Z,33.63
2022-11-28T23:10:26.879Z,33.83
2022-11-28T23:12:54.856Z,33.40
2022-11-28T23:15:24.241Z,33.87
2022-11-28T23:17:52.201Z,35.07
2022-11-28T23:20:20.332Z,35.77
2022-11-28T23:22:48.321Z,33.90
2022-11-28T23:25:16.463Z,37.47
2022-11-28T23:27:44.420Z,36.83
2022-11-28T23:30:12.975Z,37.30
2022-11-28T23:32:42.256Z,39.07
2022-11-28T23:35:10.407Z,41.83
2022-11-28T23:37:39.838Z,38.90
2022-11-28T23:40:09.043Z,40.60
2022-11-28T23:42:36.979Z,41.40
2022-11-28T23:45:05.682Z,37.57
2022-11-28T23:47:33.637Z,41.50
2022-11-28T23:50:03.119Z,38.20
2022-11-28T23:52:31.095Z,39.10
2022-11-28T23:54:59.074Z,37.57
2022-11-28T23:57:27.052Z,37.77
2022-11-28T23:59:55.011Z,40.83
